Weather Data

Pearl Creek Farm: 8878 N Farm Road 75, Walnut Grove MO 65770

<== Previous Day (Sunday 13 Sep 2015) | Next Day (Tuesday 15 Sep 2015) ==>

Summary Precipitation Data For Monday 14 September 2015

ElementValueUnits
Precipitation0"
Notes(none)
SourcePearl Creek Farm

Summary Temperature Data For Monday 14 September 2015

ElementValueUnits
High Temperature81 oF
Low Temperature60 oF
Average Temperature69 oF
High Humidity82 %
Low Humidity62 %
Average Humidity75 %
SourcePearl Creek Farm

Detail Temperature Data For Monday 14 September 2015

Date / TimeTemp (F)RH (%)Dew Pt (F)Report Date / TimeSource
2015-09-14 00:00:00 63 82 57.3 2015-11-18 13:17:03 Pearl Creek Farm
2015-09-14 00:30:00 63 82 57.3 2015-11-18 13:17:03 Pearl Creek Farm
2015-09-14 01:00:00 63 82 57.3 2015-11-18 13:17:03 Pearl Creek Farm
2015-09-14 01:30:00 62 82 56.3 2015-11-18 13:17:03 Pearl Creek Farm
2015-09-14 02:00:00 62 81 55.9 2015-11-18 13:17:03 Pearl Creek Farm
2015-09-14 02:30:00 62 81 55.9 2015-11-18 13:17:03 Pearl Creek Farm
2015-09-14 03:00:00 62 81 56.1 2015-11-18 13:17:03 Pearl Creek Farm
2015-09-14 03:30:00 61 81 55.0 2015-11-18 13:17:03 Pearl Creek Farm
2015-09-14 04:00:00 61 81 55.1 2015-11-18 13:17:03 Pearl Creek Farm
2015-09-14 04:30:00 61 81 55.1 2015-11-18 13:17:03 Pearl Creek Farm
2015-09-14 05:00:00 60 82 54.3 2015-11-18 13:17:03 Pearl Creek Farm
2015-09-14 05:30:00 60 81 54.0 2015-11-18 13:17:03 Pearl Creek Farm
2015-09-14 06:00:00 60 81 54.0 2015-11-18 13:17:03 Pearl Creek Farm
2015-09-14 06:30:00 60 81 54.0 2015-11-18 13:17:03 Pearl Creek Farm
2015-09-14 07:00:00 60 81 54.2 2015-11-18 13:17:03 Pearl Creek Farm
2015-09-14 07:30:00 60 81 54.2 2015-11-18 13:17:03 Pearl Creek Farm
2015-09-14 08:00:00 61 80 54.8 2015-11-18 13:17:03 Pearl Creek Farm
2015-09-14 08:30:00 62 80 55.6 2015-11-18 13:17:03 Pearl Creek Farm
2015-09-14 09:00:00 64 77 56.7 2015-11-18 13:17:03 Pearl Creek Farm
2015-09-14 09:30:00 67 73 58.1 2015-11-18 13:17:03 Pearl Creek Farm
2015-09-14 10:00:00 68 72 58.6 2015-11-18 13:17:03 Pearl Creek Farm
2015-09-14 10:30:00 68 73 59.0 2015-11-18 13:17:03 Pearl Creek Farm
2015-09-14 11:00:00 70 71 60.0 2015-11-18 13:17:03 Pearl Creek Farm
2015-09-14 11:30:00 72 69 61.1 2015-11-18 13:17:03 Pearl Creek Farm
2015-09-14 12:00:00 74 69 63.2 2015-11-18 13:17:03 Pearl Creek Farm
2015-09-14 12:30:00 76 65 63.4 2015-11-18 13:17:03 Pearl Creek Farm
2015-09-14 13:00:00 77 62 63.0 2015-11-18 13:17:03 Pearl Creek Farm
2015-09-14 13:30:00 78 64 64.6 2015-11-18 13:17:03 Pearl Creek Farm
2015-09-14 14:00:00 79 67 67.1 2015-11-18 13:17:03 Pearl Creek Farm
2015-09-14 14:30:00 81 63 67.0 2015-11-18 13:17:03 Pearl Creek Farm
2015-09-14 15:00:00 79 68 67.3 2015-11-18 13:17:03 Pearl Creek Farm
2015-09-14 15:30:00 81 63 67.2 2015-11-18 13:17:03 Pearl Creek Farm
2015-09-14 16:00:00 80 65 67.2 2015-11-18 13:17:03 Pearl Creek Farm
2015-09-14 16:30:00 79 70 68.4 2015-11-18 13:17:03 Pearl Creek Farm
2015-09-14 17:00:00 78 72 68.2 2015-11-18 13:17:03 Pearl Creek Farm
2015-09-14 17:30:00 78 70 67.4 2015-11-18 13:17:03 Pearl Creek Farm
2015-09-14 18:00:00 77 69 66.0 2015-11-18 13:17:03 Pearl Creek Farm
2015-09-14 18:30:00 77 70 66.3 2015-11-18 13:17:03 Pearl Creek Farm
2015-09-14 19:00:00 74 70 63.6 2015-11-18 13:17:03 Pearl Creek Farm
2015-09-14 19:30:00 72 73 62.7 2015-11-18 13:17:03 Pearl Creek Farm
2015-09-14 20:00:00 71 75 62.7 2015-11-18 13:17:03 Pearl Creek Farm
2015-09-14 20:30:00 70 79 63.2 2015-11-18 13:17:03 Pearl Creek Farm
2015-09-14 21:00:00 70 79 63.0 2015-11-18 13:17:03 Pearl Creek Farm
2015-09-14 21:30:00 69 78 61.7 2015-11-18 13:17:03 Pearl Creek Farm
2015-09-14 22:00:00 69 76 60.9 2015-11-18 13:17:03 Pearl Creek Farm
2015-09-14 22:30:00 68 76 60.2 2015-11-18 13:17:03 Pearl Creek Farm
2015-09-14 23:00:00 67 77 59.4 2015-11-18 13:17:03 Pearl Creek Farm
2015-09-14 23:30:00 66 77 58.6 2015-11-18 13:17:03 Pearl Creek Farm

A total of 48 rows are displayed.